createdAt,value
2019-02-15T00:02:35.449Z,10.70
2019-02-15T00:05:24.594Z,9.67
2019-02-15T00:08:13.059Z,10.53
2019-02-15T00:11:02.312Z,10.00
2019-02-15T00:13:51.709Z,9.57
2019-02-15T00:16:40.802Z,9.87
2019-02-15T00:19:42.077Z,9.90
2019-02-15T00:22:30.924Z,10.50
2019-02-15T00:25:19.874Z,10.17
2019-02-15T00:28:09.328Z,9.77
2019-02-15T00:30:57.772Z,11.47
2019-02-15T00:33:47.379Z,10.83
2019-02-15T00:36:36.325Z,10.60
2019-02-15T00:39:25.632Z,12.00
2019-02-15T00:42:14.344Z,10.73
2019-02-15T00:45:03.663Z,12.87
2019-02-15T00:47:58.026Z,11.50
2019-02-15T00:50:56.689Z,11.23
2019-02-15T00:53:51.146Z,12.27
2019-02-15T00:57:02.177Z,11.43
2019-02-15T01:00:13.164Z,11.43
2019-02-15T01:03:32.186Z,12.50
2019-02-15T01:06:52.495Z,11.77
2019-02-15T01:09:47.658Z,11.03
2019-02-15T01:12:45.755Z,13.10
2019-02-15T01:15:36.100Z,13.20
2019-02-15T01:18:28.338Z,12.20
2019-02-15T01:21:17.523Z,12.40
2019-02-15T01:24:06.621Z,12.33
2019-02-15T01:26:58.444Z,12.47
2019-02-15T01:29:58.999Z,12.77
2019-02-15T01:32:57.052Z,13.07
2019-02-15T01:36:25.292Z,12.10
2019-02-15T01:39:32.555Z,12.17
2019-02-15T01:42:33.490Z,13.67
2019-02-15T01:45:43.940Z,13.30
2019-02-15T01:48:32.576Z,13.90
2019-02-15T01:51:21.579Z,11.87
2019-02-15T01:54:10.939Z,13.47
2019-02-15T01:57:02.856Z,13.27
2019-02-15T01:59:51.469Z,14.30
2019-02-15T02:02:40.695Z,13.50
2019-02-15T02:05:29.655Z,12.53
2019-02-15T02:08:24.276Z,13.77
2019-02-15T02:11:13.009Z,12.70
2019-02-15T02:14:01.999Z,13.20
2019-02-15T02:16:51.412Z,13.33
2019-02-15T02:19:40.101Z,13.60
2019-02-15T02:22:30.063Z,12.43
2019-02-15T02:25:19.223Z,13.37
2019-02-15T02:28:08.191Z,13.93
2019-02-15T02:30:58.069Z,14.10
2019-02-15T02:33:47.263Z,13.73
2019-02-15T02:36:50.020Z,15.00
2019-02-15T02:39:38.881Z,13.90
2019-02-15T02:42:27.671Z,14.07
2019-02-15T02:45:16.822Z,14.20
2019-02-15T02:48:05.528Z,14.33
2019-02-15T02:50:54.932Z,13.03
2019-02-15T02:53:44.230Z,14.53
2019-02-15T02:56:33.587Z,12.97
2019-02-15T02:59:22.526Z,15.43
2019-02-15T03:02:11.768Z,14.80
2019-02-15T03:05:02.574Z,15.30
2019-02-15T03:07:51.567Z,15.57
2019-02-15T03:10:43.413Z,14.57
2019-02-15T03:13:32.460Z,13.93
2019-02-15T03:16:22.239Z,13.43
2019-02-15T03:19:11.547Z,13.60
2019-02-15T03:22:00.556Z,14.97
2019-02-15T03:24:49.880Z,14.73
2019-02-15T03:27:39.401Z,14.70
2019-02-15T03:30:28.756Z,14.50
2019-02-15T03:33:17.982Z,15.10
2019-02-15T03:36:08.687Z,14.60
2019-02-15T03:39:01.891Z,14.00
2019-02-15T03:41:51.170Z,14.03
2019-02-15T03:44:40.803Z,13.30
2019-02-15T03:47:29.815Z,14.77
2019-02-15T03:50:18.163Z,14.73
2019-02-15T03:53:06.937Z,12.80
2019-02-15T03:55:56.183Z,13.97
2019-02-15T03:58:45.333Z,13.60
2019-02-15T04:01:34.739Z,13.37
2019-02-15T04:04:25.242Z,13.70
2019-02-15T04:07:15.717Z,13.87
2019-02-15T04:10:05.010Z,12.80
2019-02-15T04:12:54.719Z,12.60
2019-02-15T04:15:43.967Z,13.17
2019-02-15T04:18:33.116Z,12.50
2019-02-15T04:21:21.896Z,12.00
2019-02-15T04:24:10.440Z,12.47
2019-02-15T04:26:59.488Z,12.40
2019-02-15T04:29:51.177Z,11.23
2019-02-15T04:32:39.956Z,13.30
2019-02-15T04:35:28.463Z,13.33
2019-02-15T04:38:17.620Z,12.37
2019-02-15T04:41:07.024Z,11.40
2019-02-15T04:43:56.178Z,12.60
2019-02-15T04:46:45.434Z,12.97
2019-02-15T04:49:34.997Z,12.00
2019-02-15T04:52:23.989Z,12.90
2019-02-15T04:55:12.861Z,11.57
2019-02-15T04:58:01.786Z,11.53
2019-02-15T05:00:50.808Z,11.80
2019-02-15T05:03:40.011Z,11.63
2019-02-15T05:06:29.203Z,11.40
2019-02-15T05:09:20.019Z,12.07
2019-02-15T05:12:09.017Z,12.53
2019-02-15T05:14:58.190Z,11.53
2019-02-15T05:17:47.196Z,12.40
2019-02-15T05:20:35.884Z,12.03
2019-02-15T05:23:26.287Z,12.80
2019-02-15T05:26:14.771Z,12.20
2019-02-15T05:29:04.599Z,13.47
2019-02-15T05:31:53.940Z,12.93
2019-02-15T05:34:43.415Z,13.53
2019-02-15T05:37:33.188Z,13.50
2019-02-15T05:40:22.734Z,12.83
2019-02-15T05:43:11.622Z,12.17
2019-02-15T05:46:00.826Z,11.53
2019-02-15T05:48:49.791Z,12.07
2019-02-15T05:51:38.956Z,11.17
2019-02-15T05:54:28.126Z,11.63
2019-02-15T05:57:16.787Z,12.20
2019-02-15T06:00:07.463Z,12.17
2019-02-15T06:02:56.871Z,12.97
2019-02-15T06:05:45.952Z,13.40
2019-02-15T06:08:34.481Z,12.47
2019-02-15T06:11:23.877Z,12.83
2019-02-15T06:14:13.027Z,13.40
2019-02-15T06:17:02.469Z,12.60
2019-02-15T06:19:51.550Z,13.20
2019-02-15T06:22:41.063Z,13.70
2019-02-15T06:25:30.177Z,14.10
2019-02-15T06:28:19.667Z,13.30
2019-02-15T06:31:10.479Z,12.87
2019-02-15T06:33:59.294Z,13.03
2019-02-15T06:36:49.024Z,11.90
2019-02-15T06:39:37.936Z,12.40
2019-02-15T06:42:27.406Z,12.80
2019-02-15T06:45:24.222Z,12.80
2019-02-15T06:48:07.152Z,12.17
2019-02-15T06:50:58.672Z,11.47
2019-02-15T06:53:49.074Z,11.47
2019-02-15T06:56:37.922Z,11.63
2019-02-15T06:59:56.407Z,11.00
2019-02-15T07:02:53.789Z,10.47
2019-02-15T07:05:43.129Z,10.67
2019-02-15T07:08:32.168Z,10.90
2019-02-15T07:11:21.180Z,10.50
2019-02-15T07:14:10.503Z,11.20
2019-02-15T07:17:00.102Z,10.90
2019-02-15T07:19:49.808Z,10.10
2019-02-15T07:22:39.101Z,10.30
2019-02-15T07:25:28.232Z,10.27
2019-02-15T07:28:16.791Z,9.67
2019-02-15T07:31:05.843Z,11.10
2019-02-15T07:33:56.922Z,10.00
2019-02-15T07:36:47.772Z,9.33
2019-02-15T07:39:36.612Z,9.93
2019-02-15T07:42:25.420Z,10.67
2019-02-15T07:45:15.409Z,9.83
2019-02-15T07:48:04.629Z,9.53
2019-02-15T07:50:54.485Z,9.13
2019-02-15T07:53:43.656Z,9.33
2019-02-15T07:56:33.047Z,8.60
2019-02-15T07:59:21.408Z,9.13
2019-02-15T08:02:09.927Z,9.40
2019-02-15T08:04:59.355Z,9.47
2019-02-15T08:07:48.389Z,9.10
2019-02-15T08:10:39.409Z,8.67
2019-02-15T08:13:28.420Z,8.33
2019-02-15T08:16:17.538Z,8.30
2019-02-15T08:19:06.490Z,9.20
2019-02-15T08:21:55.730Z,10.13
2019-02-15T08:24:44.803Z,8.70
2019-02-15T08:27:34.362Z,9.40
2019-02-15T08:30:25.537Z,9.80
2019-02-15T08:33:14.771Z,10.87
2019-02-15T08:36:03.678Z,9.20
2019-02-15T08:38:53.955Z,8.50
2019-02-15T08:42:00.635Z,8.47
2019-02-15T08:44:33.790Z,8.70
2019-02-15T08:47:22.382Z,8.93
2019-02-15T08:50:11.607Z,8.83
2019-02-15T08:53:00.191Z,8.70
2019-02-15T08:55:49.084Z,8.33
2019-02-15T08:58:38.120Z,10.67
2019-02-15T09:01:27.096Z,9.37
2019-02-15T09:04:16.014Z,9.67
2019-02-15T09:07:05.345Z,9.17
2019-02-15T09:09:55.136Z,9.80
2019-02-15T09:12:44.421Z,10.03
2019-02-15T09:15:33.729Z,9.50
2019-02-15T09:18:22.779Z,9.30
2019-02-15T09:21:11.527Z,9.73
2019-02-15T09:24:00.784Z,9.70
2019-02-15T09:26:49.956Z,9.70
2019-02-15T09:29:39.140Z,10.40
2019-02-15T09:32:27.342Z,10.43
2019-02-15T09:35:16.734Z,10.30
2019-02-15T09:38:06.765Z,10.57
2019-02-15T09:40:55.743Z,11.57
2019-02-15T09:43:45.345Z,12.00
2019-02-15T09:46:34.414Z,12.50
2019-02-15T09:49:24.360Z,12.73
2019-02-15T09:52:13.750Z,15.40
2019-02-15T09:55:03.399Z,13.83
2019-02-15T09:57:53.149Z,15.30
2019-02-15T10:00:42.521Z,13.07
2019-02-15T10:03:32.098Z,13.53
2019-02-15T10:06:20.471Z,13.53
2019-02-15T10:09:09.843Z,13.80
2019-02-15T10:11:59.398Z,15.47
2019-02-15T10:14:48.546Z,14.50
2019-02-15T10:17:37.832Z,13.77
2019-02-15T10:20:29.529Z,14.60
2019-02-15T10:23:18.884Z,14.77
2019-02-15T10:26:07.972Z,15.80
2019-02-15T10:28:56.979Z,15.20
2019-02-15T10:31:46.558Z,15.63
2019-02-15T10:34:35.470Z,16.33
2019-02-15T10:37:26.717Z,15.30
2019-02-15T10:40:16.015Z,14.30
2019-02-15T10:43:05.158Z,16.10
2019-02-15T10:45:54.106Z,14.30
2019-02-15T10:48:43.171Z,15.33
2019-02-15T10:51:32.641Z,14.70
2019-02-15T10:54:22.298Z,14.70
2019-02-15T10:57:11.643Z,15.70
2019-02-15T11:00:00.881Z,14.63
2019-02-15T11:02:49.807Z,14.43
2019-02-15T11:05:39.069Z,14.73
2019-02-15T11:08:28.319Z,21.10
2019-02-15T11:11:16.762Z,14.80
2019-02-15T11:14:06.211Z,15.00
2019-02-15T11:16:55.425Z,13.53
2019-02-15T11:19:46.677Z,13.90
2019-02-15T11:22:36.065Z,13.80
2019-02-15T11:25:27.807Z,13.20
2019-02-15T11:28:17.275Z,14.07
2019-02-15T11:31:06.323Z,14.00
2019-02-15T11:33:55.766Z,13.90
2019-02-15T11:36:44.552Z,13.97
2019-02-15T11:39:33.586Z,13.50
2019-02-15T11:42:22.817Z,13.20
2019-02-15T11:45:12.596Z,14.47
2019-02-15T11:48:01.544Z,13.97
2019-02-15T11:50:50.911Z,14.20
2019-02-15T11:53:40.172Z,16.00
2019-02-15T11:56:29.751Z,14.20
2019-02-15T11:59:19.061Z,14.00
2019-02-15T12:02:08.372Z,13.87
2019-02-15T12:04:57.791Z,14.53
2019-02-15T12:07:46.993Z,14.90
2019-02-15T12:10:36.259Z,14.37
2019-02-15T12:13:25.820Z,13.73
2019-02-15T12:16:14.779Z,14.13
2019-02-15T12:19:03.865Z,12.87
2019-02-15T12:21:52.186Z,14.40
2019-02-15T12:24:41.053Z,14.10
2019-02-15T12:27:30.234Z,14.70
2019-02-15T12:30:19.337Z,14.20
2019-02-15T12:33:08.546Z,13.20
2019-02-15T12:35:58.087Z,13.30
2019-02-15T12:38:47.389Z,13.77
2019-02-15T12:41:36.385Z,14.80
2019-02-15T12:44:27.681Z,14.73
2019-02-15T12:47:16.707Z,13.53
2019-02-15T12:50:10.904Z,14.10
2019-02-15T12:52:59.586Z,14.50
2019-02-15T12:55:48.871Z,13.60
2019-02-15T12:58:39.143Z,13.70
2019-02-15T13:01:28.555Z,12.83
2019-02-15T13:04:17.903Z,13.83
2019-02-15T13:07:07.066Z,14.00
2019-02-15T13:09:56.311Z,13.10
2019-02-15T13:12:45.809Z,13.60
2019-02-15T13:15:35.207Z,13.63
2019-02-15T13:18:25.475Z,12.67
2019-02-15T13:21:14.681Z,13.60
2019-02-15T13:24:03.611Z,14.30
2019-02-15T13:26:55.359Z,13.73
2019-02-15T13:29:44.675Z,12.87
2019-02-15T13:32:33.594Z,14.03
2019-02-15T13:35:23.318Z,14.37
2019-02-15T13:38:12.347Z,13.37
2019-02-15T13:41:01.147Z,13.40
2019-02-15T13:43:50.171Z,13.77
2019-02-15T13:46:39.645Z,13.00
2019-02-15T13:49:28.899Z,12.27
2019-02-15T13:52:18.259Z,12.67
2019-02-15T13:55:06.602Z,14.07
2019-02-15T13:57:55.795Z,12.60
2019-02-15T14:00:45.030Z,13.20
2019-02-15T14:03:33.836Z,11.07
2019-02-15T14:06:22.972Z,9.50
2019-02-15T14:09:12.683Z,10.00
2019-02-15T14:12:03.146Z,8.37
2019-02-15T14:14:52.270Z,8.80
2019-02-15T14:17:46.322Z,8.20
2019-02-15T14:20:32.880Z,8.53
2019-02-15T14:23:22.185Z,9.07
2019-02-15T14:26:11.451Z,7.17
2019-02-15T14:29:01.145Z,8.23
2019-02-15T14:31:50.645Z,7.23
2019-02-15T14:34:40.093Z,9.10
2019-02-15T14:37:28.693Z,7.30
2019-02-15T14:40:17.935Z,8.87
2019-02-15T14:43:07.102Z,9.37
2019-02-15T14:45:57.970Z,8.70
2019-02-15T14:48:47.194Z,8.03
2019-02-15T14:51:35.705Z,8.17
2019-02-15T14:54:25.110Z,8.47
2019-02-15T14:57:14.684Z,9.30
2019-02-15T15:00:03.918Z,8.77
2019-02-15T15:02:53.487Z,9.07
2019-02-15T15:05:42.938Z,8.60
2019-02-15T15:08:32.109Z,7.43
2019-02-15T15:11:21.396Z,7.73
2019-02-15T15:14:16.358Z,6.97
2019-02-15T15:17:05.125Z,7.10
2019-02-15T15:19:54.413Z,6.60
2019-02-15T15:22:44.555Z,7.60
2019-02-15T15:25:35.870Z,8.07
2019-02-15T15:28:27.160Z,8.47
2019-02-15T15:31:19.062Z,8.63
2019-02-15T15:34:07.933Z,7.77
2019-02-15T15:36:59.479Z,8.07
2019-02-15T15:39:49.126Z,8.50
2019-02-15T15:42:38.146Z,9.17
2019-02-15T15:45:27.592Z,8.30
2019-02-15T15:48:22.718Z,8.93
2019-02-15T15:51:09.591Z,7.90
2019-02-15T15:54:00.949Z,7.90
2019-02-15T15:56:50.279Z,8.23
2019-02-15T15:59:39.276Z,9.03
2019-02-15T16:02:29.090Z,9.00
2019-02-15T16:05:18.546Z,10.33
2019-02-15T16:08:08.050Z,10.40
2019-02-15T16:10:57.011Z,10.17
2019-02-15T16:13:48.762Z,10.67
2019-02-15T16:16:39.753Z,10.27
2019-02-15T16:19:28.966Z,9.83
2019-02-15T16:22:18.112Z,11.07
2019-02-15T16:25:07.180Z,9.83
2019-02-15T16:27:56.327Z,10.43
2019-02-15T16:30:44.477Z,9.57
2019-02-15T16:33:35.796Z,11.07
2019-02-15T16:36:25.032Z,10.83
2019-02-15T16:39:17.237Z,10.80
2019-02-15T16:42:05.814Z,12.50
2019-02-15T16:44:56.550Z,11.70
2019-02-15T16:47:48.695Z,11.10
2019-02-15T16:50:37.871Z,11.20
2019-02-15T16:53:29.392Z,10.03
2019-02-15T16:56:18.660Z,12.17
2019-02-15T16:59:07.944Z,11.10
2019-02-15T17:01:58.603Z,10.53
2019-02-15T17:04:47.293Z,11.07
2019-02-15T17:07:38.188Z,11.30
2019-02-15T17:10:27.708Z,11.27
2019-02-15T17:13:16.434Z,10.97
2019-02-15T17:16:06.615Z,12.30
2019-02-15T17:18:59.054Z,11.20
2019-02-15T17:21:48.356Z,11.47
2019-02-15T17:24:42.792Z,12.00
2019-02-15T17:27:31.882Z,12.37
2019-02-15T17:30:24.178Z,12.40
2019-02-15T17:33:15.825Z,13.43
2019-02-15T17:36:05.096Z,13.10
2019-02-15T17:38:54.577Z,12.63
2019-02-15T17:41:43.958Z,12.97
2019-02-15T17:44:34.170Z,12.87
2019-02-15T17:47:22.566Z,13.30
2019-02-15T17:50:11.926Z,13.50
2019-02-15T17:53:01.605Z,15.10
2019-02-15T17:55:52.223Z,17.23
2019-02-15T17:58:42.783Z,16.87
2019-02-15T18:01:32.623Z,15.97
2019-02-15T18:04:22.100Z,15.67
2019-02-15T18:07:10.994Z,17.47
2019-02-15T18:10:00.423Z,17.57
2019-02-15T18:12:49.893Z,19.67
2019-02-15T18:15:40.536Z,16.13
2019-02-15T18:18:29.166Z,16.47
2019-02-15T18:21:18.317Z,16.43
2019-02-15T18:24:08.941Z,16.40
2019-02-15T18:26:58.277Z,16.13
2019-02-15T18:29:47.570Z,17.10
2019-02-15T18:32:36.577Z,15.90
2019-02-15T18:35:27.316Z,16.80
2019-02-15T18:38:17.446Z,16.50
2019-02-15T18:41:13.282Z,16.67
2019-02-15T18:43:56.718Z,16.63
2019-02-15T18:46:46.158Z,22.70
2019-02-15T18:49:34.912Z,30.10
2019-02-15T18:52:26.527Z,21.73
2019-02-15T18:55:15.585Z,18.30
2019-02-15T18:58:04.557Z,19.27
2019-02-15T19:00:54.740Z,41.03
2019-02-15T19:03:44.103Z,33.40
2019-02-15T19:06:33.043Z,27.27
2019-02-15T19:09:22.519Z,23.20
2019-02-15T19:12:13.008Z,17.90
2019-02-15T19:15:03.987Z,19.10
2019-02-15T19:17:55.524Z,19.77
2019-02-15T19:20:44.566Z,18.90
2019-02-15T19:23:33.982Z,18.60
2019-02-15T19:26:23.587Z,17.43
2019-02-15T19:29:13.132Z,19.67
2019-02-15T19:32:03.851Z,17.90
2019-02-15T19:34:52.615Z,19.97
2019-02-15T19:37:45.260Z,19.37
2019-02-15T19:40:38.178Z,20.37
2019-02-15T19:43:29.502Z,19.77
2019-02-15T19:46:20.103Z,23.33
2019-02-15T19:49:09.316Z,25.63
2019-02-15T19:51:58.180Z,23.77
2019-02-15T19:54:47.524Z,28.47
2019-02-15T19:57:39.464Z,31.90
2019-02-15T20:00:28.057Z,29.10
2019-02-15T20:03:17.169Z,27.90
2019-02-15T20:06:06.167Z,25.00
2019-02-15T20:08:55.197Z,23.30
2019-02-15T20:11:44.330Z,22.70
2019-02-15T20:14:33.424Z,21.37
2019-02-15T20:17:22.577Z,22.80
2019-02-15T20:20:12.819Z,21.33
2019-02-15T20:23:01.873Z,20.57
2019-02-15T20:25:50.923Z,28.83
2019-02-15T20:28:40.228Z,19.47
2019-02-15T20:31:28.763Z,17.27
2019-02-15T20:34:18.082Z,22.13
2019-02-15T20:37:08.405Z,22.93
2019-02-15T20:40:00.027Z,17.93
2019-02-15T20:42:49.269Z,14.70
2019-02-15T20:45:37.925Z,13.20
2019-02-15T20:48:29.272Z,13.90
2019-02-15T20:51:20.186Z,14.10
2019-02-15T20:54:11.566Z,14.13
2019-02-15T20:57:01.028Z,13.43
2019-02-15T20:59:52.080Z,15.57
2019-02-15T21:02:41.444Z,15.67
2019-02-15T21:05:30.562Z,13.60
2019-02-15T21:08:26.463Z,14.10
2019-02-15T21:11:14.832Z,15.40
2019-02-15T21:14:03.899Z,14.77
2019-02-15T21:16:53.214Z,14.77
2019-02-15T21:19:42.176Z,12.97
2019-02-15T21:22:31.626Z,13.80
2019-02-15T21:25:21.969Z,14.67
2019-02-15T21:28:11.151Z,13.90
2019-02-15T21:31:00.352Z,12.83
2019-02-15T21:33:49.446Z,13.07
2019-02-15T21:36:41.440Z,14.47
2019-02-15T21:39:31.088Z,17.17
2019-02-15T21:42:20.065Z,12.00
2019-02-15T21:45:11.509Z,11.67
2019-02-15T21:48:01.257Z,11.93
2019-02-15T21:50:50.442Z,12.40
2019-02-15T21:53:39.276Z,12.63
2019-02-15T21:56:29.399Z,12.17
2019-02-15T21:59:18.425Z,11.80
2019-02-15T22:02:07.602Z,12.20
2019-02-15T22:04:56.552Z,10.90
2019-02-15T22:07:45.763Z,12.83
2019-02-15T22:10:35.445Z,11.03
2019-02-15T22:13:24.361Z,12.80
2019-02-15T22:16:13.126Z,11.87
2019-02-15T22:19:02.120Z,11.70
2019-02-15T22:21:51.604Z,11.30
2019-02-15T22:24:40.619Z,11.00
2019-02-15T22:27:31.693Z,11.43
2019-02-15T22:30:20.528Z,11.13
2019-02-15T22:33:09.937Z,10.73
2019-02-15T22:35:59.011Z,11.33
2019-02-15T22:38:48.439Z,11.17
2019-02-15T22:41:39.696Z,11.30
2019-02-15T22:44:29.285Z,11.20
2019-02-15T22:47:18.863Z,10.40
2019-02-15T22:50:07.264Z,10.90
2019-02-15T22:52:56.747Z,10.37
2019-02-15T22:55:46.033Z,11.60
2019-02-15T22:58:36.649Z,14.17
2019-02-15T23:01:26.173Z,12.00
2019-02-15T23:04:15.397Z,10.80
2019-02-15T23:07:03.990Z,11.87
2019-02-15T23:09:52.888Z,11.10
2019-02-15T23:12:44.568Z,11.07
2019-02-15T23:15:36.409Z,11.27
2019-02-15T23:18:28.348Z,9.60
2019-02-15T23:21:20.239Z,10.70
2019-02-15T23:24:09.251Z,11.30
2019-02-15T23:26:58.501Z,10.53
2019-02-15T23:29:47.049Z,11.53
2019-02-15T23:32:35.925Z,10.93
2019-02-15T23:35:25.244Z,11.00
2019-02-15T23:38:14.496Z,11.33
2019-02-15T23:41:03.616Z,11.53
2019-02-15T23:43:52.595Z,11.73
2019-02-15T23:46:41.764Z,12.67
2019-02-15T23:49:31.392Z,12.23
2019-02-15T23:52:20.774Z,11.70
2019-02-15T23:55:15.110Z,11.50
2019-02-15T23:58:05.124Z,12.27
